Weather data: current Freitag, 04.08.2017 05:40
Date Time Temperature Humidity Barometer Rain Wind Direction Direction Dew point Wind chill Wind gust
04.08.2017 05:40 26,4 C 71 % 1012,0 hPa 0,0 l/m 9,1 km/h (2 Bft) N-NE 32 20,7 C 25,9 C 14,5 km/h (3 Bft)
04.08.2017 05:35 26,4 C 70 % 1012,0 hPa 0,0 l/m 9,0 km/h (2 Bft) N-NE 17 20,5 C 25,9 C 16,1 km/h (3 Bft)
04.08.2017 05:30 26,3 C 71 % 1012,0 hPa 0,0 l/m 6,9 km/h (2 Bft) N-NE 25 20,6 C 26,2 C 16,1 km/h (3 Bft)
04.08.2017 05:25 26,3 C 71 % 1012,0 hPa 0,0 l/m 8,2 km/h (2 Bft) N 352 20,6 C 25,9 C 12,9 km/h (3 Bft)
04.08.2017 05:20 26,4 C 72 % 1012,0 hPa 0,0 l/m 6,8 km/h (2 Bft) N-NW 347 20,9 C 26,3 C 11,3 km/h (2 Bft)
04.08.2017 05:15 26,6 C 70 % 1012,0 hPa 0,0 l/m 7,7 km/h (2 Bft) NW 326 20,7 C 26,3 C 14,5 km/h (3 Bft)
04.08.2017 05:10 26,8 C 68 % 1012,0 hPa 0,0 l/m 7,3 km/h (2 Bft) N-NE 13 20,4 C 26,6 C 12,9 km/h (3 Bft)
04.08.2017 05:05 26,9 C 66 % 1012,0 hPa 0,0 l/m 6,2 km/h (2 Bft) N-NE 25 20,0 C 26,9 C 11,3 km/h (2 Bft)
04.08.2017 05:00 27,1 C 67 % 1012,0 hPa 0,0 l/m 8,0 km/h (2 Bft) N 352 20,4 C 26,8 C 16,1 km/h (3 Bft)
04.08.2017 04:55 27,5 C 63 % 1012,0 hPa 0,0 l/m 7,9 km/h (2 Bft) NW 313 19,8 C 27,2 C 14,5 km/h (3 Bft)
04.08.2017 04:50 27,6 C 61 % 1012,0 hPa 0,0 l/m 7,6 km/h (2 Bft) N 354 19,4 C 27,4 C 12,9 km/h (3 Bft)
04.08.2017 04:45 27,7 C 60 % 1012,0 hPa 0,0 l/m 9,1 km/h (2 Bft) NE 34 19,2 C 27,3 C 12,9 km/h (3 Bft)
04.08.2017 04:40 27,8 C 60 % 1012,0 hPa 0,0 l/m 9,9 km/h (2 Bft) N-NE 29 19,3 C 27,3 C 17,7 km/h (3 Bft)
04.08.2017 04:35 27,8 C 60 % 1012,1 hPa 0,0 l/m 9,7 km/h (2 Bft) N-NW 348 19,3 C 27,3 C 16,1 km/h (3 Bft)
04.08.2017 04:30 27,8 C 59 % 1012,1 hPa 0,0 l/m 8,9 km/h (2 Bft) N-NW 332 19,0 C 27,4 C 16,1 km/h (3 Bft)
04.08.2017 04:25 27,7 C 60 % 1012,1 hPa 0,0 l/m 8,9 km/h (2 Bft) N-NE 26 19,2 C 27,3 C 14,5 km/h (3 Bft)
04.08.2017 04:20 27,8 C 60 % 1012,1 hPa 0,0 l/m 10,4 km/h (2 Bft) N-NE 30 19,3 C 27,2 C 17,7 km/h (3 Bft)
04.08.2017 04:15 27,9 C 60 % 1012,2 hPa 0,0 l/m 10,0 km/h (2 Bft) N 356 19,4 C 27,4 C 17,7 km/h (3 Bft)
04.08.2017 04:10 27,8 C 60 % 1012,2 hPa 0,0 l/m 8,7 km/h (2 Bft) N 351 19,3 C 27,4 C 12,9 km/h (3 Bft)
04.08.2017 04:05 27,7 C 61 % 1012,2 hPa 0,0 l/m 9,5 km/h (2 Bft) N-NW 348 19,5 C 27,2 C 17,7 km/h (3 Bft)
04.08.2017 04:00 27,8 C 61 % 1012,2 hPa 0,0 l/m 8,5 km/h (2 Bft) N 1 19,6 C 27,5 C 16,1 km/h (3 Bft)
04.08.2017 03:55 27,8 C 59 % 1012,3 hPa 0,0 l/m 8,2 km/h (2 Bft) N 349 19,0 C 27,5 C 16,1 km/h (3 Bft)
04.08.2017 03:50 27,8 C 60 % 1012,2 hPa 0,0 l/m 7,1 km/h (2 Bft) N-NE 18 19,3 C 27,7 C 12,9 km/h (3 Bft)
04.08.2017 03:45 27,8 C 59 % 1012,2 hPa 0,0 l/m 5,6 km/h (1 Bft) N 4 19,0 C 27,8 C 11,3 km/h (2 Bft)
04.08.2017 03:40 27,8 C 59 % 1012,2 hPa 0,0 l/m 8,6 km/h (2 Bft) N-NE 32 19,0 C 27,5 C 14,5 km/h (3 Bft)
04.08.2017 03:35 27,7 C 60 % 1012,2 hPa 0,0 l/m 7,6 km/h (2 Bft) NE 44 19,2 C 27,5 C 12,9 km/h (3 Bft)
04.08.2017 03:30 27,8 C 60 % 1012,3 hPa 0,0 l/m 9,4 km/h (2 Bft) N 5 19,3 C 27,3 C 17,7 km/h (3 Bft)
04.08.2017 03:25 27,8 C 60 % 1012,3 hPa 0,0 l/m 8,5 km/h (2 Bft) N-NE 23 19,3 C 27,5 C 16,1 km/h (3 Bft)
04.08.2017 03:20 27,8 C 60 % 1012,3 hPa 0,0 l/m 8,0 km/h (2 Bft) N-NE 27 19,3 C 27,5 C 11,3 km/h (2 Bft)
04.08.2017 03:15 27,6 C 61 % 1012,3 hPa 0,0 l/m 6,0 km/h (2 Bft) N 6 19,4 C 27,6 C 11,3 km/h (2 Bft)
04.08.2017 03:10 27,6 C 61 % 1012,3 hPa 0,0 l/m 6,6 km/h (2 Bft) N 8 19,4 C 27,6 C 11,3 km/h (2 Bft)
04.08.2017 03:05 27,6 C 62 % 1012,3 hPa 0,0 l/m 8,0 km/h (2 Bft) N-NW 344 19,6 C 27,3 C 12,9 km/h (3 Bft)
04.08.2017 03:00 27,6 C 62 % 1012,4 hPa 0,0 l/m 10,3 km/h (2 Bft) N 6 19,6 C 27,0 C 16,1 km/h (3 Bft)
04.08.2017 02:55 27,4 C 64 % 1012,4 hPa 0,0 l/m 10,1 km/h (2 Bft) N-NE 30 20,0 C 26,8 C 17,7 km/h (3 Bft)
04.08.2017 02:50 27,4 C 65 % 1012,4 hPa 0,0 l/m 7,5 km/h (2 Bft) N 8 20,2 C 27,2 C 14,5 km/h (3 Bft)
04.08.2017 02:45 27,4 C 64 % 1012,5 hPa 0,0 l/m 8,4 km/h (2 Bft) N-NE 15 20,0 C 27,1 C 12,9 km/h (3 Bft)
04.08.2017 02:40 27,3 C 65 % 1012,5 hPa 0,0 l/m 6,7 km/h (2 Bft) N-NE 27 20,1 C 27,2 C 12,9 km/h (3 Bft)
04.08.2017 02:35 27,3 C 64 % 1012,5 hPa 0,0 l/m 7,4 km/h (2 Bft) N-NE 30 19,9 C 27,1 C 11,3 km/h (2 Bft)
04.08.2017 02:30 27,2 C 65 % 1012,4 hPa 0,0 l/m 6,4 km/h (2 Bft) N 349 20,0 C 27,2 C 9,7 km/h (2 Bft)
04.08.2017 02:25 27,1 C 68 % 1012,4 hPa 0,0 l/m 6,4 km/h (2 Bft) N-NW 347 20,7 C 27,1 C 9,7 km/h (2 Bft)
04.08.2017 02:20 27,3 C 69 % 1012,6 hPa 0,0 l/m 8,3 km/h (2 Bft) N-NE 15 21,1 C 27,0 C 12,9 km/h (3 Bft)
04.08.2017 02:15 27,5 C 65 % 1012,5 hPa 0,0 l/m 9,0 km/h (2 Bft) N 359 20,3 C 27,1 C 14,5 km/h (3 Bft)
04.08.2017 02:10 27,4 C 65 % 1012,5 hPa 0,0 l/m 9,2 km/h (2 Bft) N-NW 343 20,2 C 26,9 C 16,1 km/h (3 Bft)
04.08.2017 02:05 27,3 C 66 % 1012,6 hPa 0,0 l/m 9,6 km/h (2 Bft) N-NE 20 20,4 C 26,8 C 16,1 km/h (3 Bft)
04.08.2017 02:00 27,2 C 69 % 1012,5 hPa 0,0 l/m 9,1 km/h (2 Bft) N 351 21,0 C 26,7 C 14,5 km/h (3 Bft)
04.08.2017 01:55 27,3 C 68 % 1012,6 hPa 0,0 l/m 6,6 km/h (2 Bft) N 8 20,9 C 27,3 C 12,9 km/h (3 Bft)
04.08.2017 01:50 27,4 C 66 % 1012,6 hPa 0,0 l/m 7,0 km/h (2 Bft) N-NE 15 20,5 C 27,3 C 14,5 km/h (3 Bft)
04.08.2017 01:45 27,4 C 66 % 1012,6 hPa 0,0 l/m 8,9 km/h (2 Bft) NW 321 20,5 C 27,0 C 14,5 km/h (3 Bft)
04.08.2017 01:40 27,4 C 66 % 1012,6 hPa 0,0 l/m 7,7 km/h (2 Bft) N 350 20,5 C 27,2 C 12,9 km/h (3 Bft)
04.08.2017 01:35 27,5 C 66 % 1012,7 hPa 0,0 l/m 8,0 km/h (2 Bft) N-NW 339 20,6 C 27,2 C 14,5 km/h (3 Bft)
04.08.2017 01:30 27,5 C 66 % 1012,7 hPa 0,0 l/m 6,8 km/h (2 Bft) N 7 20,6 C 27,4 C 12,9 km/h (3 Bft)
04.08.2017 01:25 27,6 C 66 % 1012,7 hPa 0,0 l/m 6,5 km/h (2 Bft) N 356 20,7 C 27,6 C 11,3 km/h (2 Bft)
04.08.2017 01:20 27,7 C 65 % 1012,7 hPa 0,0 l/m 8,0 km/h (2 Bft) N 357 20,5 C 27,4 C 14,5 km/h (3 Bft)
04.08.2017 01:15 27,6 C 65 % 1012,7 hPa 0,0 l/m 8,2 km/h (2 Bft) N-NW 348 20,4 C 27,3 C 16,1 km/h (3 Bft)
04.08.2017 01:10 27,6 C 66 % 1012,8 hPa 0,0 l/m 7,8 km/h (2 Bft) N 353 20,7 C 27,4 C 14,5 km/h (3 Bft)
04.08.2017 01:05 27,7 C 66 % 1012,8 hPa 0,0 l/m 9,7 km/h (2 Bft) N 1 20,8 C 27,2 C 16,1 km/h (3 Bft)
04.08.2017 01:00 27,7 C 67 % 1012,8 hPa 0,0 l/m 8,9 km/h (2 Bft) N-NW 336 21,0 C 27,3 C 14,5 km/h (3 Bft)
04.08.2017 00:55 28,2 C 66 % 1012,9 hPa 0,0 l/m 9,6 km/h (2 Bft) N-NW 340 21,2 C 27,7 C 19,3 km/h (3 Bft)
04.08.2017 00:50 28,4 C 60 % 1012,9 hPa 0,0 l/m 12,0 km/h (2 Bft) N 6 19,9 C 27,7 C 17,7 km/h (3 Bft)
04.08.2017 00:45 28,6 C 59 % 1013,0 hPa 0,0 l/m 13,6 km/h (3 Bft) N-NE 33 19,8 C 27,8 C 19,3 km/h (3 Bft)
04.08.2017 00:40 28,6 C 58 % 1012,9 hPa 0,0 l/m 11,9 km/h (2 Bft) N-NE 15 19,5 C 27,9 C 20,9 km/h (4 Bft)
04.08.2017 00:35 28,7 C 58 % 1013,0 hPa 0,0 l/m 13,3 km/h (3 Bft) N-NE 31 19,6 C 27,9 C 19,3 km/h (3 Bft)
04.08.2017 00:30 28,6 C 57 % 1012,9 hPa 0,0 l/m 12,3 km/h (3 Bft) N 11 19,2 C 27,9 C 17,7 km/h (3 Bft)
04.08.2017 00:25 28,6 C 58 % 1012,8 hPa 0,0 l/m 9,2 km/h (2 Bft) N-NW 331 19,5 C 28,2 C 22,5 km/h (4 Bft)
04.08.2017 00:20 28,4 C 60 % 1012,8 hPa 0,0 l/m 10,3 km/h (2 Bft) N 4 19,9 C 27,9 C 16,1 km/h (3 Bft)
04.08.2017 00:15 28,6 C 57 % 1012,9 hPa 0,0 l/m 9,0 km/h (2 Bft) N-NW 341 19,2 C 28,3 C 17,7 km/h (3 Bft)
04.08.2017 00:10 28,6 C 58 % 1012,8 hPa 0,0 l/m 9,9 km/h (2 Bft) N 353 19,5 C 28,2 C 16,1 km/h (3 Bft)
04.08.2017 00:05 28,4 C 60 % 1012,8 hPa 0,0 l/m 9,1 km/h (2 Bft) N 4 19,9 C 28,0 C 14,5 km/h (3 Bft)
04.08.2017 00:00 28,3 C 60 % 1012,7 hPa 0,0 l/m 9,1 km/h (2 Bft) N-NE 27 19,8 C 27,9 C 17,7 km/h (3 Bft)
_ Min-Time 05:35 00:15 04:40 - 03:45 - - 03:40 05:40 02:25
Minimum _ 26,2 C 57 % 1012,0 hPa - 5,6 km/h (1 Bft) - - 19,0 C 25,9 C 9,7 km/h (2 Bft)
_ Max-Time 00:35 05:20 00:35 00:00 00:45 - - 00:55 00:15 00:25
Maximum _ 28,7 C 72 % 1013,0 hPa 0,0 l/m 13,6 km/h
N-NE (3 Bft)
- - 21,2 C 28,3 C 22,5 km/h
N (4 Bft)
Average _ 27,6 C 63 % 1012,4 hPa #0,0 l/m 8,6 km/h (2 Bft) N - 20,0 C 27,3 C 14,9 km/h (3 Bft)